createdAt,value
2022-11-02T00:00:15.287Z,53.64
2022-11-02T00:02:42.502Z,53.23
2022-11-02T00:05:11.887Z,53.61
2022-11-02T00:07:38.926Z,53.55
2022-11-02T00:10:06.271Z,53.44
2022-11-02T00:12:33.336Z,53.67
2022-11-02T00:15:00.251Z,53.27
2022-11-02T00:17:27.347Z,53.29
2022-11-02T00:19:54.410Z,53.38
2022-11-02T00:22:21.386Z,53.36
2022-11-02T00:24:48.331Z,53.74
2022-11-02T00:27:15.390Z,53.53
2022-11-02T00:29:42.450Z,53.39
2022-11-02T00:32:09.309Z,53.40
2022-11-02T00:34:36.171Z,53.30
2022-11-02T00:37:03.489Z,53.61
2022-11-02T00:39:30.588Z,53.38
2022-11-02T00:41:57.470Z,53.75
2022-11-02T00:44:24.327Z,53.38
2022-11-02T00:46:51.266Z,53.08
2022-11-02T00:49:18.255Z,53.13
2022-11-02T00:51:45.318Z,53.36
2022-11-02T00:54:12.758Z,53.55
2022-11-02T00:56:39.709Z,53.35
2022-11-02T00:59:06.648Z,53.07
2022-11-02T01:01:33.722Z,53.06
2022-11-02T01:04:00.699Z,52.92
2022-11-02T01:06:27.478Z,53.08
2022-11-02T01:08:54.697Z,52.87
2022-11-02T01:11:22.977Z,53.05
2022-11-02T01:13:52.565Z,53.35
2022-11-02T01:16:19.556Z,53.05
2022-11-02T01:18:46.770Z,52.84
2022-11-02T01:21:13.651Z,53.06
2022-11-02T01:23:40.488Z,52.83
2022-11-02T01:26:08.308Z,52.64
2022-11-02T01:28:35.547Z,53.05
2022-11-02T01:31:02.650Z,53.25
2022-11-02T01:33:29.829Z,52.67
2022-11-02T01:35:56.720Z,52.68
2022-11-02T01:38:23.946Z,52.86
2022-11-02T01:40:50.888Z,52.96
2022-11-02T01:43:21.138Z,52.90
2022-11-02T01:45:49.026Z,52.63
2022-11-02T01:48:16.191Z,52.80
2022-11-02T01:50:43.688Z,53.23
2022-11-02T01:53:10.898Z,52.97
2022-11-02T01:55:40.451Z,53.14
2022-11-02T01:58:10.598Z,53.14
2022-11-02T02:00:38.955Z,53.13
2022-11-02T02:03:10.360Z,53.55
2022-11-02T02:05:42.278Z,53.93
2022-11-02T02:08:10.408Z,53.38
2022-11-02T02:10:37.296Z,53.70
2022-11-02T02:13:05.614Z,53.89
2022-11-02T02:15:40.559Z,54.13
2022-11-02T02:18:11.409Z,53.92
2022-11-02T02:20:45.697Z,54.01
2022-11-02T02:23:21.809Z,54.12
2022-11-02T02:25:49.001Z,54.05
2022-11-02T02:28:19.896Z,54.09
2022-11-02T02:30:55.686Z,54.01
2022-11-02T02:33:31.645Z,53.96
2022-11-02T02:36:02.529Z,53.81
2022-11-02T02:38:29.846Z,54.31
2022-11-02T02:41:06.340Z,53.92
2022-11-02T02:43:37.297Z,54.21
2022-11-02T02:46:10.586Z,54.39
2022-11-02T02:48:40.498Z,54.18
2022-11-02T02:51:11.500Z,54.17
2022-11-02T02:53:42.290Z,54.45
2022-11-02T02:56:10.735Z,54.60
2022-11-02T02:58:40.555Z,54.24
2022-11-02T03:01:11.496Z,54.36
2022-11-02T03:03:40.039Z,54.37
2022-11-02T03:06:15.631Z,54.54
2022-11-02T03:08:44.526Z,54.13
2022-11-02T03:11:16.350Z,54.05
2022-11-02T03:13:55.733Z,54.17
2022-11-02T03:16:23.248Z,54.52
2022-11-02T03:18:59.741Z,54.35
2022-11-02T03:21:30.719Z,54.14
2022-11-02T03:24:02.957Z,54.29
2022-11-02T03:26:39.692Z,54.21
2022-11-02T03:29:10.435Z,54.23
2022-11-02T03:31:46.753Z,54.14
2022-11-02T03:34:17.789Z,54.39
2022-11-02T03:36:50.117Z,54.26
2022-11-02T03:39:19.897Z,54.68
2022-11-02T03:41:47.718Z,54.36
2022-11-02T03:44:17.533Z,54.79
2022-11-02T03:46:44.737Z,54.38
2022-11-02T03:49:14.558Z,54.55
2022-11-02T03:51:43.026Z,54.64
2022-11-02T03:54:17.739Z,54.60
2022-11-02T03:56:46.949Z,54.62
2022-11-02T03:59:13.958Z,54.91
2022-11-02T04:01:42.812Z,54.87
2022-11-02T04:04:09.957Z,54.52
2022-11-02T04:06:37.354Z,54.74
2022-11-02T04:09:05.028Z,54.49
2022-11-02T04:11:41.549Z,54.57
2022-11-02T04:14:18.429Z,54.77
2022-11-02T04:16:45.209Z,54.98
2022-11-02T04:19:21.375Z,55.17
2022-11-02T04:21:57.419Z,55.04
2022-11-02T04:24:33.381Z,55.20
2022-11-02T04:27:00.437Z,55.02
2022-11-02T04:29:27.289Z,55.31
2022-11-02T04:31:54.019Z,55.43
2022-11-02T04:34:20.746Z,55.21
2022-11-02T04:36:48.059Z,55.24
2022-11-02T04:39:14.824Z,55.46
2022-11-02T04:41:42.641Z,55.57
2022-11-02T04:44:11.399Z,55.56
2022-11-02T04:46:39.049Z,55.63
2022-11-02T04:49:05.802Z,55.53
2022-11-02T04:51:32.584Z,55.74
2022-11-02T04:53:59.619Z,55.50
2022-11-02T04:56:27.249Z,55.25
2022-11-02T04:58:56.184Z,55.54
2022-11-02T05:01:24.801Z,55.73
2022-11-02T05:03:52.761Z,55.77
2022-11-02T05:06:20.329Z,55.55
2022-11-02T05:08:47.369Z,55.63
2022-11-02T05:11:14.640Z,55.77
2022-11-02T05:13:41.614Z,55.58
2022-11-02T05:16:10.719Z,56.07
2022-11-02T05:18:37.464Z,55.98
2022-11-02T05:21:04.259Z,55.78
2022-11-02T05:23:31.008Z,55.97
2022-11-02T05:25:59.059Z,55.98
2022-11-02T05:28:26.766Z,55.76
2022-11-02T05:30:53.864Z,56.07
2022-11-02T05:33:21.304Z,55.99
2022-11-02T05:35:48.261Z,56.27
2022-11-02T05:38:15.155Z,56.25
2022-11-02T05:40:42.713Z,56.24
2022-11-02T05:43:10.021Z,55.79
2022-11-02T05:45:37.242Z,55.96
2022-11-02T05:48:06.990Z,55.93
2022-11-02T05:50:34.219Z,56.12
2022-11-02T05:53:01.239Z,56.14
2022-11-02T05:55:28.284Z,56.58
2022-11-02T05:57:56.113Z,56.64
2022-11-02T06:00:24.435Z,57.23
2022-11-02T06:02:55.808Z,57.38
2022-11-02T06:05:22.828Z,57.32
2022-11-02T06:07:49.629Z,57.87
2022-11-02T06:10:16.419Z,58.12
2022-11-02T06:12:43.380Z,58.14
2022-11-02T06:15:10.365Z,58.33
2022-11-02T06:17:38.060Z,58.31
2022-11-02T06:20:05.060Z,58.45
2022-11-02T06:22:31.869Z,58.62
2022-11-02T06:24:58.604Z,58.06
2022-11-02T06:27:25.284Z,58.06
2022-11-02T06:29:52.098Z,58.19
2022-11-02T06:32:18.898Z,58.21
2022-11-02T06:34:45.603Z,58.29
2022-11-02T06:37:12.335Z,58.19
2022-11-02T06:39:39.060Z,58.59
2022-11-02T06:42:05.900Z,58.34
2022-11-02T06:44:32.739Z,58.10
2022-11-02T06:46:59.544Z,58.33
2022-11-02T06:49:26.338Z,58.14
2022-11-02T06:51:53.229Z,58.00
2022-11-02T06:54:20.009Z,57.86
2022-11-02T06:56:46.765Z,57.56
2022-11-02T06:59:13.642Z,57.77
2022-11-02T07:01:40.589Z,57.52
2022-11-02T07:04:08.054Z,57.56
2022-11-02T07:06:35.009Z,57.37
2022-11-02T07:09:01.822Z,57.65
2022-11-02T07:11:28.565Z,57.14
2022-11-02T07:13:55.729Z,57.43
2022-11-02T07:16:22.839Z,56.99
2022-11-02T07:18:49.718Z,57.22
2022-11-02T07:21:16.661Z,56.44
2022-11-02T07:23:43.514Z,56.34
2022-11-02T07:26:10.353Z,52.13
2022-11-02T07:28:38.630Z,52.18
2022-11-02T07:31:05.834Z,52.09
2022-11-02T07:33:32.942Z,51.68
2022-11-02T07:35:59.899Z,51.73
2022-11-02T07:38:26.692Z,51.87
2022-11-02T07:40:53.504Z,51.79
2022-11-02T07:43:20.378Z,51.73
2022-11-02T07:45:47.329Z,51.65
2022-11-02T07:48:14.379Z,51.36
2022-11-02T07:50:41.465Z,51.60
2022-11-02T07:53:08.759Z,51.01
2022-11-02T07:55:35.906Z,50.91
2022-11-02T07:58:04.675Z,51.38
2022-11-02T08:00:33.212Z,51.11
2022-11-02T08:03:01.387Z,51.29
2022-11-02T08:05:29.639Z,51.15
2022-11-02T08:07:59.024Z,51.19
2022-11-02T08:10:26.142Z,51.16
2022-11-02T08:12:53.264Z,51.02
2022-11-02T08:15:20.775Z,51.35
2022-11-02T08:17:48.057Z,52.07
2022-11-02T08:20:15.414Z,52.22
2022-11-02T08:22:42.528Z,51.82
2022-11-02T08:25:10.070Z,52.00
2022-11-02T08:27:37.270Z,51.78
2022-11-02T08:30:04.857Z,51.62
2022-11-02T08:32:32.059Z,51.99
2022-11-02T08:34:59.195Z,51.77
2022-11-02T08:37:26.453Z,51.59
2022-11-02T08:39:53.756Z,51.52
2022-11-02T08:42:20.990Z,51.57
2022-11-02T08:44:48.303Z,51.79
2022-11-02T08:47:16.610Z,51.39
2022-11-02T08:49:43.740Z,51.54
2022-11-02T08:52:11.146Z,51.19
2022-11-02T08:54:38.464Z,51.45
2022-11-02T08:57:05.655Z,51.20
2022-11-02T08:59:32.921Z,51.23
2022-11-02T09:02:00.111Z,50.80
2022-11-02T09:04:27.435Z,50.79
2022-11-02T09:06:54.940Z,50.65
2022-11-02T09:09:22.055Z,50.79
2022-11-02T09:11:50.570Z,50.74
2022-11-02T09:14:17.819Z,50.47
2022-11-02T09:16:45.180Z,50.33
2022-11-02T09:19:12.377Z,50.91
2022-11-02T09:21:39.487Z,49.89
2022-11-02T09:24:06.970Z,49.84
2022-11-02T09:26:34.132Z,49.83
2022-11-02T09:29:01.515Z,50.39
2022-11-02T09:31:30.657Z,50.33
2022-11-02T09:33:57.851Z,49.89
2022-11-02T09:36:25.134Z,50.38
2022-11-02T09:38:52.372Z,50.11
2022-11-02T09:41:20.621Z,49.83
2022-11-02T09:43:53.773Z,49.96
2022-11-02T09:46:26.588Z,49.14
2022-11-02T09:48:57.576Z,49.27
2022-11-02T09:51:27.821Z,49.62
2022-11-02T09:54:03.183Z,49.57
2022-11-02T09:56:31.207Z,49.25
2022-11-02T09:59:01.839Z,49.24
2022-11-02T10:01:34.014Z,48.98
2022-11-02T10:04:11.024Z,49.53
2022-11-02T10:06:41.655Z,49.23
2022-11-02T10:09:20.947Z,49.06
2022-11-02T10:11:51.400Z,49.18
2022-11-02T10:14:22.462Z,49.34
2022-11-02T10:16:54.165Z,49.04
2022-11-02T10:19:26.210Z,49.04
2022-11-02T10:21:57.984Z,49.55
2022-11-02T10:24:26.856Z,48.94
2022-11-02T10:26:59.704Z,49.11
2022-11-02T10:29:35.896Z,49.36
2022-11-02T10:32:03.895Z,49.21
2022-11-02T10:34:31.661Z,49.16
2022-11-02T10:36:58.761Z,49.30
2022-11-02T10:39:34.375Z,48.98
2022-11-02T10:42:11.930Z,49.26
2022-11-02T10:44:42.375Z,49.58
2022-11-02T10:47:16.500Z,49.48
2022-11-02T10:49:51.966Z,49.18
2022-11-02T10:52:19.345Z,49.20
2022-11-02T10:54:50.215Z,49.27
2022-11-02T10:57:21.014Z,49.63
2022-11-02T11:00:07.979Z,49.83
2022-11-02T11:02:35.116Z,49.43
2022-11-02T11:05:12.935Z,49.72
2022-11-02T11:07:45.105Z,49.67
2022-11-02T11:10:16.226Z,49.48
2022-11-02T11:12:43.651Z,49.61
2022-11-02T11:21:00.930Z,50.24
2022-11-02T11:23:28.376Z,50.05
2022-11-02T11:25:57.415Z,49.86
2022-11-02T11:28:29.073Z,49.51
2022-11-02T11:31:03.587Z,50.28
2022-11-02T11:33:31.574Z,49.90
2022-11-02T11:35:59.205Z,49.64
2022-11-02T11:38:27.994Z,50.04
2022-11-02T11:40:57.486Z,50.10
2022-11-02T11:43:27.127Z,50.19
2022-11-02T11:46:00.473Z,49.88
2022-11-02T11:48:31.351Z,50.08
2022-11-02T11:50:58.854Z,50.06
2022-11-02T11:53:27.085Z,50.00
2022-11-02T11:55:55.655Z,50.01
2022-11-02T11:58:24.065Z,50.06
2022-11-02T12:01:10.516Z,50.18
2022-11-02T12:03:47.048Z,50.55
2022-11-02T12:06:21.038Z,50.52
2022-11-02T12:09:04.540Z,50.43
2022-11-02T12:11:40.081Z,50.46
2022-11-02T12:14:14.243Z,50.57
2022-11-02T12:16:41.610Z,50.94
2022-11-02T12:19:18.323Z,50.80
2022-11-02T12:21:54.079Z,50.68
2022-11-02T12:24:21.244Z,50.80
2022-11-02T12:27:05.277Z,50.55
2022-11-02T12:29:41.924Z,50.59
2022-11-02T12:32:14.649Z,50.49
2022-11-02T12:34:57.773Z,50.97
2022-11-02T12:37:48.888Z,50.55
2022-11-02T12:43:23.451Z,50.86
2022-11-02T12:45:55.952Z,50.69
2022-11-02T12:48:26.820Z,51.17
2022-11-02T12:51:03.483Z,50.61
2022-11-02T12:53:40.145Z,50.82
2022-11-02T12:56:10.083Z,51.05
2022-11-02T12:58:39.609Z,51.18
2022-11-02T13:01:12.346Z,50.99
2022-11-02T13:03:47.959Z,50.79
2022-11-02T13:06:18.078Z,51.07
2022-11-02T13:08:48.493Z,50.77
2022-11-02T13:11:20.556Z,51.01
2022-11-02T13:13:51.814Z,50.69
2022-11-02T13:16:22.537Z,51.01
2022-11-02T13:18:51.518Z,50.91
2022-11-02T13:21:24.175Z,51.04
2022-11-02T13:23:54.316Z,51.19
2022-11-02T13:26:22.650Z,51.21
2022-11-02T13:28:53.686Z,50.93
2022-11-02T13:31:28.648Z,50.85
2022-11-02T13:33:57.446Z,51.16
2022-11-02T13:36:27.691Z,51.17
2022-11-02T13:39:00.932Z,51.10
2022-11-02T13:41:33.043Z,51.21
2022-11-02T13:44:02.045Z,51.28
2022-11-02T13:46:38.446Z,51.75
2022-11-02T13:49:12.856Z,51.20
2022-11-02T13:51:44.582Z,51.49
2022-11-02T13:54:17.522Z,51.49
2022-11-02T13:56:45.523Z,51.86
2022-11-02T13:59:22.372Z,51.70
2022-11-02T14:01:52.975Z,52.09
2022-11-02T14:04:21.367Z,51.72
2022-11-02T14:06:48.975Z,51.98
2022-11-02T14:09:26.243Z,51.83
2022-11-02T14:12:10.721Z,52.07
2022-11-02T14:14:37.998Z,52.40
2022-11-02T14:17:15.098Z,51.95
2022-11-02T14:19:49.789Z,52.09
2022-11-02T14:22:18.016Z,52.48
2022-11-02T14:24:46.472Z,52.08
2022-11-02T14:27:14.096Z,52.49
2022-11-02T14:29:41.405Z,52.37
2022-11-02T14:32:17.926Z,52.43
2022-11-02T14:34:55.123Z,52.60
2022-11-02T14:37:23.534Z,52.52
2022-11-02T14:39:59.944Z,52.76
2022-11-02T14:42:37.689Z,52.64
2022-11-02T14:45:11.143Z,52.75
2022-11-02T14:47:39.279Z,52.38
2022-11-02T14:50:07.682Z,52.37
2022-11-02T14:52:36.677Z,52.42
2022-11-02T14:55:07.203Z,52.41
2022-11-02T14:57:44.336Z,52.76
2022-11-02T15:00:21.848Z,52.59
2022-11-02T15:02:50.169Z,52.87
2022-11-02T15:05:26.060Z,52.55
2022-11-02T15:07:58.907Z,53.04
2022-11-02T15:10:31.241Z,52.65
2022-11-02T15:13:15.861Z,52.98
2022-11-02T15:15:44.824Z,53.10
2022-11-02T15:18:22.148Z,52.67
2022-11-02T15:21:10.722Z,52.70
2022-11-02T15:26:43.039Z,53.03
2022-11-02T15:29:17.149Z,52.96
2022-11-02T15:31:49.230Z,52.50
2022-11-02T15:34:19.539Z,52.93
2022-11-02T15:36:47.209Z,52.57
2022-11-02T15:39:15.712Z,52.87
2022-11-02T15:41:43.584Z,52.73
2022-11-02T15:44:20.727Z,52.95
2022-11-02T15:46:56.094Z,52.97
2022-11-02T15:49:35.220Z,52.47
2022-11-02T15:52:03.449Z,52.37
2022-11-02T15:54:34.251Z,52.59
2022-11-02T15:57:12.583Z,54.41
2022-11-02T15:59:49.503Z,54.64
2022-11-02T16:02:21.332Z,54.45
2022-11-02T16:04:51.839Z,55.17
2022-11-02T16:07:21.873Z,54.79
2022-11-02T16:09:51.241Z,54.45
2022-11-02T16:12:21.307Z,54.22
2022-11-02T16:14:53.693Z,54.28
2022-11-02T16:17:24.882Z,53.80
2022-11-02T16:19:54.105Z,53.77
2022-11-02T16:22:23.787Z,53.53
2022-11-02T16:24:52.504Z,53.58
2022-11-02T16:27:20.590Z,53.37
2022-11-02T16:29:50.135Z,53.52
2022-11-02T16:32:18.095Z,53.78
2022-11-02T16:34:46.214Z,53.40
2022-11-02T16:37:16.403Z,52.88
2022-11-02T16:39:46.295Z,53.12
2022-11-02T16:42:17.639Z,53.12
2022-11-02T16:44:54.870Z,52.64
2022-11-02T16:47:30.573Z,52.46
2022-11-02T16:49:59.439Z,52.50
2022-11-02T16:52:30.407Z,52.47
2022-11-02T16:54:58.343Z,52.98
2022-11-02T16:57:29.150Z,52.64
2022-11-02T17:00:08.664Z,52.68
2022-11-02T17:02:40.570Z,52.59
2022-11-02T17:05:19.701Z,52.24
2022-11-02T17:07:58.441Z,52.62
2022-11-02T17:10:28.691Z,52.24
2022-11-02T17:12:57.158Z,52.23
2022-11-02T17:15:27.211Z,52.27
2022-11-02T17:18:15.161Z,52.48
2022-11-02T17:20:43.666Z,52.19
2022-11-02T17:23:29.637Z,52.09
2022-11-02T17:26:08.012Z,52.01
2022-11-02T17:28:47.205Z,51.88
2022-11-02T17:31:26.959Z,52.00
2022-11-02T17:33:57.836Z,52.01
2022-11-02T17:36:28.150Z,52.02
2022-11-02T17:38:56.425Z,51.70
2022-11-02T17:41:34.257Z,52.00
2022-11-02T17:44:02.972Z,51.78
2022-11-02T17:46:31.506Z,51.34
2022-11-02T17:49:00.167Z,51.66
2022-11-02T17:51:28.515Z,51.70
2022-11-02T17:53:56.690Z,51.98
2022-11-02T17:56:25.225Z,52.04
2022-11-02T17:58:57.657Z,52.27
2022-11-02T18:01:30.945Z,52.09
2022-11-02T18:03:59.182Z,51.99
2022-11-02T18:06:27.228Z,51.94
2022-11-02T18:09:04.358Z,52.26
2022-11-02T18:11:32.772Z,51.93
2022-11-02T18:14:01.251Z,52.19
2022-11-02T18:16:30.439Z,52.07
2022-11-02T18:18:59.344Z,52.02
2022-11-02T18:21:26.893Z,52.04
2022-11-02T18:23:54.863Z,52.48
2022-11-02T18:26:23.226Z,52.36
2022-11-02T18:28:53.890Z,52.37
2022-11-02T18:31:21.778Z,52.66
2022-11-02T18:33:49.412Z,52.40
2022-11-02T18:36:17.021Z,52.55
2022-11-02T18:38:45.004Z,52.50
2022-11-02T18:41:22.330Z,52.78
2022-11-02T18:43:50.520Z,52.82
2022-11-02T18:46:18.912Z,53.39
2022-11-02T18:48:48.544Z,53.39
2022-11-02T18:51:16.661Z,53.58
2022-11-02T18:53:44.485Z,53.27
2022-11-02T18:56:13.353Z,53.48
2022-11-02T18:58:42.386Z,53.56
2022-11-02T19:01:11.966Z,53.83
2022-11-02T19:03:40.441Z,53.82
2022-11-02T19:06:18.349Z,54.27
2022-11-02T19:08:55.095Z,54.01
2022-11-02T19:11:22.540Z,54.45
2022-11-02T19:13:50.241Z,54.23
2022-11-02T19:16:18.139Z,54.54
2022-11-02T19:18:46.263Z,54.45
2022-11-02T19:21:14.086Z,54.66
2022-11-02T19:23:41.610Z,54.64
2022-11-02T19:26:10.098Z,54.76
2022-11-02T19:28:38.010Z,55.14
2022-11-02T19:31:06.633Z,55.10
2022-11-02T19:33:34.132Z,55.48
2022-11-02T19:36:01.812Z,55.56
2022-11-02T19:38:29.112Z,55.43
2022-11-02T19:41:06.548Z,55.33
2022-11-02T19:43:34.528Z,55.92
2022-11-02T19:46:02.697Z,55.81
2022-11-02T19:48:32.819Z,55.72
2022-11-02T19:51:11.488Z,56.13
2022-11-02T19:53:41.232Z,56.09
2022-11-02T19:56:11.546Z,56.26
2022-11-02T19:58:40.660Z,56.06
2022-11-02T20:01:09.850Z,56.26
2022-11-02T20:03:37.911Z,56.35
2022-11-02T20:06:06.730Z,56.20
2022-11-02T20:08:34.580Z,57.23
2022-11-02T20:11:02.300Z,56.25
2022-11-02T20:13:30.056Z,56.41
2022-11-02T20:15:57.575Z,56.13
2022-11-02T20:18:25.116Z,56.29
2022-11-02T20:20:53.954Z,56.57
2022-11-02T20:23:21.311Z,56.20
2022-11-02T20:25:48.743Z,56.47
2022-11-02T20:28:16.382Z,56.28
2022-11-02T20:30:44.237Z,56.58
2022-11-02T20:33:11.686Z,56.44
2022-11-02T20:35:39.535Z,56.92
2022-11-02T20:38:07.036Z,56.76
2022-11-02T20:40:37.547Z,56.80
2022-11-02T20:43:08.587Z,57.18
2022-11-02T20:45:35.858Z,56.80
2022-11-02T20:48:04.101Z,57.21
2022-11-02T20:50:31.906Z,57.27
2022-11-02T20:52:59.968Z,57.27
2022-11-02T20:55:27.572Z,57.50
2022-11-02T20:57:54.763Z,56.95
2022-11-02T21:00:22.198Z,57.37
2022-11-02T21:02:49.640Z,57.39
2022-11-02T21:05:17.059Z,57.49
2022-11-02T21:07:44.548Z,57.11
2022-11-02T21:10:12.074Z,57.72
2022-11-02T21:12:48.942Z,57.20
2022-11-02T21:15:16.123Z,57.74
2022-11-02T21:17:43.514Z,57.73
2022-11-02T21:20:33.131Z,58.18
2022-11-02T21:23:00.765Z,57.65
2022-11-02T21:25:28.643Z,58.47
2022-11-02T21:27:56.531Z,58.86
2022-11-02T21:30:23.917Z,59.14
2022-11-02T21:32:52.324Z,59.22
2022-11-02T21:35:19.901Z,58.64
2022-11-02T21:37:46.990Z,59.00
2022-11-02T21:40:14.688Z,58.72
2022-11-02T21:42:42.022Z,58.92
2022-11-02T21:45:09.673Z,58.47
2022-11-02T21:47:36.965Z,58.87
2022-11-02T21:50:06.699Z,58.58
2022-11-02T21:52:35.871Z,58.48
2022-11-02T21:55:03.641Z,58.37
2022-11-02T21:57:30.650Z,58.42
2022-11-02T21:59:57.923Z,58.11
2022-11-02T22:02:25.055Z,58.05
2022-11-02T22:04:54.588Z,57.94
2022-11-02T22:07:22.080Z,58.08
2022-11-02T22:09:50.949Z,57.83
2022-11-02T22:12:27.766Z,58.05
2022-11-02T22:14:55.472Z,57.66
2022-11-02T22:17:48.080Z,57.45
2022-11-02T22:20:10.044Z,57.71
2022-11-02T22:22:37.202Z,57.79
2022-11-02T22:25:04.634Z,57.85
2022-11-02T22:27:31.866Z,57.56
2022-11-02T22:29:59.118Z,57.95
2022-11-02T22:32:26.660Z,57.73
2022-11-02T22:34:54.178Z,57.41
2022-11-02T22:37:24.376Z,57.55
2022-11-02T22:39:51.563Z,57.29
2022-11-02T22:42:18.936Z,57.42
2022-11-02T22:44:46.214Z,57.63
2022-11-02T22:47:13.237Z,57.27
2022-11-02T22:49:40.399Z,58.00
2022-11-02T22:52:07.529Z,57.93
2022-11-02T22:54:34.507Z,57.89
2022-11-02T22:57:01.364Z,57.50
2022-11-02T22:59:28.544Z,57.91
2022-11-02T23:01:55.805Z,57.69
2022-11-02T23:04:22.803Z,57.57
2022-11-02T23:06:49.961Z,58.11
2022-11-02T23:09:17.065Z,57.67
2022-11-02T23:11:44.380Z,58.04
2022-11-02T23:14:12.901Z,57.90
2022-11-02T23:16:42.525Z,58.12
2022-11-02T23:19:16.919Z,58.14
2022-11-02T23:21:49.522Z,58.58
2022-11-02T23:24:20.959Z,59.10
2022-11-02T23:26:49.573Z,58.81
2022-11-02T23:29:19.804Z,59.08
2022-11-02T23:31:49.866Z,59.02
2022-11-02T23:34:16.812Z,58.71
2022-11-02T23:36:43.670Z,59.01
2022-11-02T23:39:13.610Z,59.28
2022-11-02T23:41:41.820Z,58.99
2022-11-02T23:44:12.456Z,59.13
2022-11-02T23:46:39.916Z,58.58
2022-11-02T23:49:07.021Z,58.85
2022-11-02T23:51:37.111Z,58.62
2022-11-02T23:54:07.206Z,58.57
2022-11-02T23:56:37.746Z,58.80
2022-11-02T23:59:07.797Z,58.30
